sensor_id;sensor_type;location;lat;lon;timestamp;pressure;altitude;pressure_sealevel;temperature;humidity
49567;BME280;35472;50.514;30.448;2022-11-15T00:00:03;65520.50;;;-143.57;100.00
49567;BME280;35472;50.514;30.448;2022-11-15T00:02:47;65520.50;;;-143.57;100.00
49567;BME280;35472;50.514;30.448;2022-11-15T00:05:34;65520.50;;;-143.57;100.00
49567;BME280;35472;50.514;30.448;2022-11-15T00:08:19;65520.50;;;-143.57;100.00
49567;BME280;35472;50.514;30.448;2022-11-15T00:11:03;65520.50;;;-143.57;100.00
49567;BME280;35472;50.514;30.448;2022-11-15T00:13:47;65520.50;;;-143.57;100.00
49567;BME280;35472;50.514;30.448;2022-11-15T00:16:31;65520.50;;;-143.57;100.00
49567;BME280;35472;50.514;30.448;2022-11-15T00:19:15;65520.50;;;-143.57;100.00
49567;BME280;35472;50.514;30.448;2022-11-15T00:21:59;65520.50;;;-143.57;100.00
49567;BME280;35472;50.514;30.448;2022-11-15T00:24:43;65520.50;;;-143.57;100.00
49567;BME280;35472;50.514;30.448;2022-11-15T00:27:27;65520.50;;;-143.57;100.00
49567;BME280;35472;50.514;30.448;2022-11-15T00:30:11;65520.50;;;-143.57;100.00
49567;BME280;35472;50.514;30.448;2022-11-15T00:32:56;65520.50;;;-143.57;100.00
49567;BME280;35472;50.514;30.448;2022-11-15T00:35:40;65520.50;;;-143.57;100.00
49567;BME280;35472;50.514;30.448;2022-11-15T00:38:24;65520.50;;;-143.57;100.00
49567;BME280;35472;50.514;30.448;2022-11-15T00:41:08;65520.50;;;-143.57;100.00
49567;BME280;35472;50.514;30.448;2022-11-15T00:43:52;65520.50;;;-143.57;100.00
49567;BME280;35472;50.514;30.448;2022-11-15T00:46:37;65520.50;;;-143.57;100.00
49567;BME280;35472;50.514;30.448;2022-11-15T00:49:21;65520.50;;;-143.57;100.00
49567;BME280;35472;50.514;30.448;2022-11-15T00:52:05;65520.50;;;-143.57;100.00
49567;BME280;35472;50.514;30.448;2022-11-15T00:54:49;65520.50;;;-143.57;100.00
49567;BME280;35472;50.514;30.448;2022-11-15T00:57:33;65520.50;;;-143.57;100.00
49567;BME280;35472;50.514;30.448;2022-11-15T01:00:17;65520.50;;;-143.57;100.00
49567;BME280;35472;50.514;30.448;2022-11-15T01:03:02;65520.50;;;-143.57;100.00
49567;BME280;35472;50.514;30.448;2022-11-15T01:05:45;65520.50;;;-143.57;100.00
49567;BME280;35472;50.514;30.448;2022-11-15T01:08:29;65520.50;;;-143.57;100.00
49567;BME280;35472;50.514;30.448;2022-11-15T01:11:13;65520.50;;;-143.57;100.00
49567;BME280;35472;50.514;30.448;2022-11-15T01:13:57;65520.50;;;-143.57;100.00
49567;BME280;35472;50.514;30.448;2022-11-15T01:16:41;65520.50;;;-143.57;100.00
49567;BME280;35472;50.514;30.448;2022-11-15T01:19:25;65520.50;;;-143.57;100.00
49567;BME280;35472;50.514;30.448;2022-11-15T01:22:10;65520.50;;;-143.57;100.00
49567;BME280;35472;50.514;30.448;2022-11-15T01:24:54;65520.50;;;-143.57;100.00
49567;BME280;35472;50.514;30.448;2022-11-15T01:27:38;65520.50;;;-143.57;100.00
49567;BME280;35472;50.514;30.448;2022-11-15T01:30:22;65520.50;;;-143.57;100.00
49567;BME280;35472;50.514;30.448;2022-11-15T01:33:06;65520.50;;;-143.57;100.00
49567;BME280;35472;50.514;30.448;2022-11-15T01:35:49;65520.50;;;-143.57;100.00
49567;BME280;35472;50.514;30.448;2022-11-15T01:38:34;65520.50;;;-143.57;100.00
49567;BME280;35472;50.514;30.448;2022-11-15T01:41:19;65520.50;;;-143.57;100.00
49567;BME280;35472;50.514;30.448;2022-11-15T01:47:31;65520.50;;;-143.57;100.00
49567;BME280;35472;50.514;30.448;2022-11-15T01:50:22;65520.50;;;-143.57;100.00
49567;BME280;35472;50.514;30.448;2022-11-15T01:53:08;65520.50;;;-143.57;100.00
49567;BME280;35472;50.514;30.448;2022-11-15T01:55:54;65520.50;;;-143.57;100.00
49567;BME280;35472;50.514;30.448;2022-11-15T01:58:40;65520.50;;;-143.57;100.00
49567;BME280;35472;50.514;30.448;2022-11-15T02:01:26;65520.50;;;-143.57;100.00
49567;BME280;35472;50.514;30.448;2022-11-15T02:04:17;65520.50;;;-143.57;100.00
49567;BME280;35472;50.514;30.448;2022-11-15T02:07:05;65520.50;;;-143.57;100.00
49567;BME280;35472;50.514;30.448;2022-11-15T02:09:50;65520.50;;;-143.57;100.00
49567;BME280;35472;50.514;30.448;2022-11-15T02:12:36;65520.50;;;-143.57;100.00
49567;BME280;35472;50.514;30.448;2022-11-15T02:15:20;65520.50;;;-143.57;100.00
49567;BME280;35472;50.514;30.448;2022-11-15T02:24:11;65520.50;;;-143.57;100.00
49567;BME280;35472;50.514;30.448;2022-11-15T02:42:14;65520.50;;;-143.57;100.00
49567;BME280;35472;50.514;30.448;2022-11-15T02:45:27;65520.50;;;-143.57;100.00
49567;BME280;35472;50.514;30.448;2022-11-15T02:48:14;65520.50;;;-143.57;100.00
49567;BME280;35472;50.514;30.448;2022-11-15T02:50:59;65520.50;;;-143.57;100.00
49567;BME280;35472;50.514;30.448;2022-11-15T02:53:44;65520.50;;;-143.57;100.00
49567;BME280;35472;50.514;30.448;2022-11-15T02:56:28;65520.50;;;-143.57;100.00
49567;BME280;35472;50.514;30.448;2022-11-15T03:02:52;65520.50;;;-143.57;100.00
49567;BME280;35472;50.514;30.448;2022-11-15T03:05:56;65520.50;;;-143.57;100.00
49567;BME280;35472;50.514;30.448;2022-11-15T03:09:02;65520.50;;;-143.57;100.00
49567;BME280;35472;50.514;30.448;2022-11-15T03:11:51;65520.50;;;-143.57;100.00
49567;BME280;35472;50.514;30.448;2022-11-15T03:14:49;65520.50;;;-143.57;100.00
49567;BME280;35472;50.514;30.448;2022-11-15T03:17:37;65520.50;;;-143.57;100.00
49567;BME280;35472;50.514;30.448;2022-11-15T03:20:24;65520.50;;;-143.57;100.00
49567;BME280;35472;50.514;30.448;2022-11-15T03:23:10;65520.50;;;-143.57;100.00
49567;BME280;35472;50.514;30.448;2022-11-15T03:25:56;65520.50;;;-143.57;100.00
49567;BME280;35472;50.514;30.448;2022-11-15T03:28:50;65520.50;;;-143.57;100.00
49567;BME280;35472;50.514;30.448;2022-11-15T03:31:39;65520.50;;;-143.57;100.00
49567;BME280;35472;50.514;30.448;2022-11-15T03:40:27;65520.50;;;-143.57;100.00
49567;BME280;35472;50.514;30.448;2022-11-15T03:43:32;65520.50;;;-143.57;100.00
49567;BME280;35472;50.514;30.448;2022-11-15T03:46:27;65520.50;;;-143.57;100.00
49567;BME280;35472;50.514;30.448;2022-11-15T03:49:20;65520.50;;;-143.57;100.00
49567;BME280;35472;50.514;30.448;2022-11-15T03:52:06;65520.50;;;-143.57;100.00
49567;BME280;35472;50.514;30.448;2022-11-15T03:54:53;65520.50;;;-143.57;100.00
49567;BME280;35472;50.514;30.448;2022-11-15T03:57:37;65520.50;;;-143.57;100.00
49567;BME280;35472;50.514;30.448;2022-11-15T04:00:21;65520.50;;;-143.57;100.00
49567;BME280;35472;50.514;30.448;2022-11-15T04:03:05;65520.50;;;-143.57;100.00
49567;BME280;35472;50.514;30.448;2022-11-15T04:05:51;65520.50;;;-143.57;100.00
49567;BME280;35472;50.514;30.448;2022-11-15T04:08:35;65520.50;;;-143.57;100.00
49567;BME280;35472;50.514;30.448;2022-11-15T04:11:19;65520.50;;;-143.57;100.00
49567;BME280;35472;50.514;30.448;2022-11-15T04:14:03;65520.50;;;-143.57;100.00
49567;BME280;35472;50.514;30.448;2022-11-15T04:16:48;65520.50;;;-143.57;100.00
49567;BME280;35472;50.514;30.448;2022-11-15T04:19:35;65520.50;;;-143.57;100.00
49567;BME280;35472;50.514;30.448;2022-11-15T04:22:37;65520.50;;;-143.57;100.00
49567;BME280;35472;50.514;30.448;2022-11-15T04:25:41;65520.50;;;-143.57;100.00
49567;BME280;35472;50.514;30.448;2022-11-15T04:28:26;65520.50;;;-143.57;100.00
49567;BME280;35472;50.514;30.448;2022-11-15T04:31:10;65520.50;;;-143.57;100.00
49567;BME280;35472;50.514;30.448;2022-11-15T04:33:55;65520.50;;;-143.57;100.00
49567;BME280;35472;50.514;30.448;2022-11-15T04:36:38;65520.50;;;-143.57;100.00
49567;BME280;35472;50.514;30.448;2022-11-15T04:39:42;65520.50;;;-143.57;100.00
49567;BME280;35472;50.514;30.448;2022-11-15T04:42:30;65520.50;;;-143.57;100.00
49567;BME280;35472;50.514;30.448;2022-11-15T04:45:14;65520.50;;;-143.57;100.00
49567;BME280;35472;50.514;30.448;2022-11-15T04:47:58;65520.50;;;-143.57;100.00
49567;BME280;35472;50.514;30.448;2022-11-15T04:50:43;65520.50;;;-143.57;100.00
49567;BME280;35472;50.514;30.448;2022-11-15T04:53:27;65520.50;;;-143.57;100.00
49567;BME280;35472;50.514;30.448;2022-11-15T04:56:11;65520.50;;;-143.57;100.00
49567;BME280;35472;50.514;30.448;2022-11-15T04:58:55;65520.50;;;-143.57;100.00
49567;BME280;35472;50.514;30.448;2022-11-15T05:01:39;65520.50;;;-143.57;100.00
49567;BME280;35472;50.514;30.448;2022-11-15T05:04:23;65520.50;;;-143.57;100.00
49567;BME280;35472;50.514;30.448;2022-11-15T05:07:07;65520.50;;;-143.57;100.00
49567;BME280;35472;50.514;30.448;2022-11-15T05:09:51;65520.50;;;-143.57;100.00
49567;BME280;35472;50.514;30.448;2022-11-15T05:12:35;65520.50;;;-143.57;100.00
49567;BME280;35472;50.514;30.448;2022-11-15T05:15:19;65520.50;;;-143.57;100.00
49567;BME280;35472;50.514;30.448;2022-11-15T05:18:03;65520.50;;;-143.57;100.00
49567;BME280;35472;50.514;30.448;2022-11-15T05:20:47;65520.50;;;-143.57;100.00
49567;BME280;35472;50.514;30.448;2022-11-15T05:23:31;65520.50;;;-143.57;100.00
49567;BME280;35472;50.514;30.448;2022-11-15T05:26:16;65520.50;;;-143.57;100.00
49567;BME280;35472;50.514;30.448;2022-11-15T05:29:02;65520.50;;;-143.57;100.00
49567;BME280;35472;50.514;30.448;2022-11-15T05:31:46;65520.50;;;-143.57;100.00
49567;BME280;35472;50.514;30.448;2022-11-15T05:34:30;65520.50;;;-143.57;100.00
49567;BME280;35472;50.514;30.448;2022-11-15T05:37:14;65520.50;;;-143.57;100.00
49567;BME280;35472;50.514;30.448;2022-11-15T05:39:59;65520.50;;;-143.57;100.00
49567;BME280;35472;50.514;30.448;2022-11-15T05:42:44;65520.50;;;-143.57;100.00
49567;BME280;35472;50.514;30.448;2022-11-15T05:45:29;65520.50;;;-143.57;100.00
49567;BME280;35472;50.514;30.448;2022-11-15T05:48:14;65520.50;;;-143.57;100.00
49567;BME280;35472;50.514;30.448;2022-11-15T05:50:59;65520.50;;;-143.57;100.00
49567;BME280;35472;50.514;30.448;2022-11-15T05:53:44;65520.50;;;-143.57;100.00
49567;BME280;35472;50.514;30.448;2022-11-15T05:56:29;65520.50;;;-143.57;100.00
49567;BME280;35472;50.514;30.448;2022-11-15T05:59:13;65520.50;;;-143.57;100.00
49567;BME280;35472;50.514;30.448;2022-11-15T06:01:57;65520.50;;;-143.57;100.00
49567;BME280;35472;50.514;30.448;2022-11-15T06:04:41;65520.50;;;-143.57;100.00
49567;BME280;35472;50.514;30.448;2022-11-15T06:07:26;65520.50;;;-143.57;100.00
49567;BME280;35472;50.514;30.448;2022-11-15T06:10:10;65520.50;;;-143.57;100.00
49567;BME280;35472;50.514;30.448;2022-11-15T06:13:01;65520.50;;;-143.57;100.00
49567;BME280;35472;50.514;30.448;2022-11-15T06:15:45;65520.50;;;-143.57;100.00
49567;BME280;35472;50.514;30.448;2022-11-15T06:18:32;65520.50;;;-143.57;100.00
49567;BME280;35472;50.514;30.448;2022-11-15T06:21:17;65520.50;;;-143.57;100.00
49567;BME280;35472;50.514;30.448;2022-11-15T06:24:01;65520.50;;;-143.57;100.00
49567;BME280;35472;50.514;30.448;2022-11-15T06:26:46;65520.50;;;-143.57;100.00
49567;BME280;35472;50.514;30.448;2022-11-15T06:29:30;65520.50;;;-143.57;100.00
49567;BME280;35472;50.514;30.448;2022-11-15T06:32:13;65520.50;;;-143.57;100.00
49567;BME280;35472;50.514;30.448;2022-11-15T06:34:57;65520.50;;;-143.57;100.00
49567;BME280;35472;50.514;30.448;2022-11-15T06:37:42;65520.50;;;-143.57;100.00
49567;BME280;35472;50.514;30.448;2022-11-15T06:40:26;65520.50;;;-143.57;100.00
49567;BME280;35472;50.514;30.448;2022-11-15T06:43:10;65520.50;;;-143.57;100.00
49567;BME280;35472;50.514;30.448;2022-11-15T06:45:55;65520.50;;;-143.57;100.00
49567;BME280;35472;50.514;30.448;2022-11-15T06:48:39;65520.50;;;-143.57;100.00
49567;BME280;35472;50.514;30.448;2022-11-15T06:51:23;65520.50;;;-143.57;100.00
49567;BME280;35472;50.514;30.448;2022-11-15T06:54:07;65520.50;;;-143.57;100.00
49567;BME280;35472;50.514;30.448;2022-11-15T06:56:51;65520.50;;;-143.57;100.00
49567;BME280;35472;50.514;30.448;2022-11-15T06:59:35;65520.50;;;-143.57;100.00
49567;BME280;35472;50.514;30.448;2022-11-15T07:02:19;65520.50;;;-143.57;100.00
49567;BME280;35472;50.514;30.448;2022-11-15T07:05:03;65520.50;;;-143.57;100.00
49567;BME280;35472;50.514;30.448;2022-11-15T07:07:54;65520.50;;;-143.57;100.00
49567;BME280;35472;50.514;30.448;2022-11-15T07:10:38;65520.50;;;-143.57;100.00
49567;BME280;35472;50.514;30.448;2022-11-15T07:13:24;65520.50;;;-143.57;100.00
49567;BME280;35472;50.514;30.448;2022-11-15T07:16:10;65520.50;;;-143.57;100.00
49567;BME280;35472;50.514;30.448;2022-11-15T07:18:54;65520.50;;;-143.57;100.00
49567;BME280;35472;50.514;30.448;2022-11-15T07:21:38;65520.50;;;-143.57;100.00
49567;BME280;35472;50.514;30.448;2022-11-15T07:24:25;65520.50;;;-143.57;100.00
49567;BME280;35472;50.514;30.448;2022-11-15T07:27:09;65520.50;;;-143.57;100.00
49567;BME280;35472;50.514;30.448;2022-11-15T07:29:53;65520.50;;;-143.57;100.00
49567;BME280;35472;50.514;30.448;2022-11-15T07:32:37;65520.50;;;-143.57;100.00
49567;BME280;35472;50.514;30.448;2022-11-15T07:35:21;65520.50;;;-143.57;100.00
49567;BME280;35472;50.514;30.448;2022-11-15T07:38:05;65520.50;;;-143.57;100.00
49567;BME280;35472;50.514;30.448;2022-11-15T07:40:56;65520.50;;;-143.57;100.00
49567;BME280;35472;50.514;30.448;2022-11-15T07:43:40;65520.50;;;-143.57;100.00
49567;BME280;35472;50.514;30.448;2022-11-15T07:46:24;65520.50;;;-143.57;100.00
49567;BME280;35472;50.514;30.448;2022-11-15T07:49:08;65520.50;;;-143.57;100.00
49567;BME280;35472;50.514;30.448;2022-11-15T07:51:52;65520.50;;;-143.57;100.00
49567;BME280;35472;50.514;30.448;2022-11-15T07:54:36;65520.50;;;-143.57;100.00
49567;BME280;35472;50.514;30.448;2022-11-15T07:57:20;65520.50;;;-143.57;100.00
49567;BME280;35472;50.514;30.448;2022-11-15T08:00:05;65520.50;;;-143.57;100.00
49567;BME280;35472;50.514;30.448;2022-11-15T08:02:49;65520.50;;;-143.57;100.00
49567;BME280;35472;50.514;30.448;2022-11-15T08:05:34;65520.50;;;-143.57;100.00
49567;BME280;35472;50.514;30.448;2022-11-15T08:08:18;65520.50;;;-143.57;100.00
49567;BME280;35472;50.514;30.448;2022-11-15T08:11:03;65520.50;;;-143.57;100.00
49567;BME280;35472;50.514;30.448;2022-11-15T08:13:47;65520.50;;;-143.57;100.00
49567;BME280;35472;50.514;30.448;2022-11-15T08:16:31;65520.50;;;-143.57;100.00
49567;BME280;35472;50.514;30.448;2022-11-15T08:19:15;65520.50;;;-143.57;100.00
49567;BME280;35472;50.514;30.448;2022-11-15T08:21:59;65520.50;;;-143.57;100.00
49567;BME280;35472;50.514;30.448;2022-11-15T08:24:43;65520.50;;;-143.57;100.00
49567;BME280;35472;50.514;30.448;2022-11-15T08:27:28;65520.50;;;-143.57;100.00
49567;BME280;35472;50.514;30.448;2022-11-15T08:30:12;65520.50;;;-143.57;100.00
49567;BME280;35472;50.514;30.448;2022-11-15T08:32:58;65520.50;;;-143.57;100.00
49567;BME280;35472;50.514;30.448;2022-11-15T08:35:42;65520.50;;;-143.57;100.00
49567;BME280;35472;50.514;30.448;2022-11-15T08:38:27;65520.50;;;-143.57;100.00
49567;BME280;35472;50.514;30.448;2022-11-15T08:41:31;65520.50;;;-143.57;100.00
49567;BME280;35472;50.514;30.448;2022-11-15T08:44:15;65520.50;;;-143.57;100.00
49567;BME280;35472;50.514;30.448;2022-11-15T08:46:59;65520.50;;;-143.57;100.00
49567;BME280;35472;50.514;30.448;2022-11-15T08:49:43;65520.50;;;-143.57;100.00
49567;BME280;35472;50.514;30.448;2022-11-15T08:52:27;65520.50;;;-143.57;100.00
49567;BME280;35472;50.514;30.448;2022-11-15T08:55:11;65520.50;;;-143.57;100.00
49567;BME280;35472;50.514;30.448;2022-11-15T08:57:57;65520.50;;;-143.57;100.00
49567;BME280;35472;50.514;30.448;2022-11-15T09:00:41;65520.50;;;-143.57;100.00
49567;BME280;35472;50.514;30.448;2022-11-15T09:03:25;65520.50;;;-143.57;100.00
49567;BME280;35472;50.514;30.448;2022-11-15T09:06:09;65520.50;;;-143.57;100.00
49567;BME280;35472;50.514;30.448;2022-11-15T09:08:53;65520.50;;;-143.57;100.00
49567;BME280;35472;50.514;30.448;2022-11-15T09:11:37;65520.50;;;-143.57;100.00
49567;BME280;35472;50.514;30.448;2022-11-15T09:14:21;65520.50;;;-143.57;100.00
49567;BME280;35472;50.514;30.448;2022-11-15T09:17:07;65520.50;;;-143.57;100.00
49567;BME280;35472;50.514;30.448;2022-11-15T09:19:52;65520.50;;;-143.57;100.00
49567;BME280;35472;50.514;30.448;2022-11-15T09:22:36;65520.50;;;-143.57;100.00
49567;BME280;35472;50.514;30.448;2022-11-15T09:25:22;65520.50;;;-143.57;100.00
49567;BME280;35472;50.514;30.448;2022-11-15T09:28:07;65520.50;;;-143.57;100.00
49567;BME280;35472;50.514;30.448;2022-11-15T09:30:56;65520.50;;;-143.57;100.00
49567;BME280;35472;50.514;30.448;2022-11-15T09:33:43;65520.50;;;-143.57;100.00
49567;BME280;35472;50.514;30.448;2022-11-15T09:36:27;65520.50;;;-143.57;100.00
49567;BME280;35472;50.514;30.448;2022-11-15T09:39:11;65520.50;;;-143.57;100.00
49567;BME280;35472;50.514;30.448;2022-11-15T09:51:03;65520.50;;;-143.57;100.00
49567;BME280;35472;50.514;30.448;2022-11-15T09:53:52;65520.50;;;-143.57;100.00
49567;BME280;35472;50.514;30.448;2022-11-15T09:56:26;65520.50;;;-143.57;100.00
49567;BME280;35472;50.514;30.448;2022-11-15T13:18:34;99956.16;;;7.04;100.00
49567;BME280;35472;50.514;30.448;2022-11-15T13:21:02;99949.44;;;6.51;100.00
49567;BME280;35472;50.514;30.448;2022-11-15T13:23:52;99953.31;;;6.93;100.00
49567;BME280;35472;50.514;30.448;2022-11-15T13:26:18;99948.03;;;7.04;100.00
49567;BME280;35472;50.514;30.448;2022-11-15T13:28:48;99949.63;;;7.21;100.00
49567;BME280;35472;50.514;30.448;2022-11-15T13:31:29;99943.25;;;7.11;100.00
49567;BME280;35472;50.514;30.448;2022-11-15T13:34:24;99941.94;;;6.41;100.00
49567;BME280;35472;50.514;30.448;2022-11-15T13:36:50;99927.09;;;6.99;100.00
49567;BME280;35472;50.514;30.448;2022-11-15T13:39:33;99934.53;;;6.87;100.00
49567;BME280;35472;50.514;30.448;2022-11-15T13:42:01;99926.25;;;6.43;100.00
49567;BME280;35472;50.514;30.448;2022-11-15T13:44:31;99922.78;;;6.81;100.00
49567;BME280;35472;50.514;30.448;2022-11-15T13:47:06;99921.63;;;6.77;100.00
49567;BME280;35472;50.514;30.448;2022-11-15T13:49:33;99915.31;;;7.10;100.00
49567;BME280;35472;50.514;30.448;2022-11-15T13:52:05;99917.31;;;7.20;100.00
49567;BME280;35472;50.514;30.448;2022-11-15T13:57:13;99914.66;;;6.81;100.00
49567;BME280;35472;50.514;30.448;2022-11-15T13:59:49;99910.31;;;7.02;100.00
49567;BME280;35472;50.514;30.448;2022-11-15T14:02:18;99892.56;;;7.38;100.00
49567;BME280;35472;50.514;30.448;2022-11-15T14:04:55;99902.28;;;6.68;100.00
49567;BME280;35472;50.514;30.448;2022-11-15T14:07:24;99893.72;;;6.60;100.00
49567;BME280;35472;50.514;30.448;2022-11-15T14:09:51;99892.72;;;6.66;100.00
49567;BME280;35472;50.514;30.448;2022-11-15T14:12:32;99880.28;;;7.31;100.00
49567;BME280;35472;50.514;30.448;2022-11-15T14:15:02;99880.88;;;7.60;100.00
49567;BME280;35472;50.514;30.448;2022-11-15T14:19:53;99866.53;;;7.15;100.00
49567;BME280;35472;50.514;30.448;2022-11-15T14:22:22;99867.28;;;7.33;100.00
49567;BME280;35472;50.514;30.448;2022-11-15T14:25:18;99860.31;;;7.42;100.00
49567;BME280;35472;50.514;30.448;2022-11-15T14:30:32;99851.97;;;6.99;100.00
49567;BME280;35472;50.514;30.448;2022-11-15T14:32:58;99850.09;;;7.81;100.00
49567;BME280;35472;50.514;30.448;2022-11-15T14:35:23;99848.41;;;7.21;100.00
49567;BME280;35472;50.514;30.448;2022-11-15T14:37:49;99839.34;;;6.88;100.00
49567;BME280;35472;50.514;30.448;2022-11-15T14:40:17;99840.38;;;7.58;100.00
49567;BME280;35472;50.514;30.448;2022-11-15T14:42:44;99851.72;;;7.77;100.00
49567;BME280;35472;50.514;30.448;2022-11-15T14:45:13;99839.84;;;7.29;100.00
49567;BME280;35472;50.514;30.448;2022-11-15T14:47:40;99837.78;;;7.41;100.00
49567;BME280;35472;50.514;30.448;2022-11-15T14:50:05;99835.72;;;7.26;100.00
49567;BME280;35472;50.514;30.448;2022-11-15T14:52:32;99834.00;;;7.42;100.00
49567;BME280;35472;50.514;30.448;2022-11-15T14:55:03;99831.63;;;7.78;100.00
49567;BME280;35472;50.514;30.448;2022-11-15T14:57:34;99834.50;;;7.66;100.00
49567;BME280;35472;50.514;30.448;2022-11-15T14:59:59;99831.91;;;7.82;100.00
49567;BME280;35472;50.514;30.448;2022-11-15T15:02:38;99828.38;;;8.13;100.00
49567;BME280;35472;50.514;30.448;2022-11-15T15:05:15;99818.06;;;7.51;100.00
49567;BME280;35472;50.514;30.448;2022-11-15T15:07:41;99819.63;;;7.42;100.00
49567;BME280;35472;50.514;30.448;2022-11-15T15:10:07;99819.31;;;7.70;100.00
49567;BME280;35472;50.514;30.448;2022-11-15T15:12:32;99818.88;;;7.78;100.00
49567;BME280;35472;50.514;30.448;2022-11-15T15:14:58;99810.50;;;7.85;100.00
49567;BME280;35472;50.514;30.448;2022-11-15T15:17:23;99809.09;;;8.15;100.00
49567;BME280;35472;50.514;30.448;2022-11-15T15:19:49;99815.09;;;8.17;100.00
49567;BME280;35472;50.514;30.448;2022-11-15T15:22:19;99808.28;;;7.77;100.00
49567;BME280;35472;50.514;30.448;2022-11-15T15:24:48;99806.03;;;8.01;100.00
49567;BME280;35472;50.514;30.448;2022-11-15T15:27:13;99801.00;;;7.88;100.00
49567;BME280;35472;50.514;30.448;2022-11-15T15:29:39;99788.56;;;7.92;100.00
49567;BME280;35472;50.514;30.448;2022-11-15T15:32:05;99790.13;;;7.83;100.00
49567;BME280;35472;50.514;30.448;2022-11-15T15:34:32;99781.16;;;7.50;100.00
49567;BME280;35472;50.514;30.448;2022-11-15T15:37:26;99789.44;;;7.65;100.00
49567;BME280;35472;50.514;30.448;2022-11-15T15:39:55;99778.13;;;7.78;100.00
49567;BME280;35472;50.514;30.448;2022-11-15T15:42:22;99777.13;;;7.52;100.00
49567;BME280;35472;50.514;30.448;2022-11-15T15:44:49;99780.41;;;7.92;100.00
49567;BME280;35472;50.514;30.448;2022-11-15T15:47:18;99782.09;;;7.98;100.00
49567;BME280;35472;50.514;30.448;2022-11-15T15:49:44;99773.59;;;7.57;100.00
49567;BME280;35472;50.514;30.448;2022-11-15T15:52:10;99772.34;;;8.02;100.00
49567;BME280;35472;50.514;30.448;2022-11-15T15:54:37;99763.38;;;8.06;100.00
49567;BME280;35472;50.514;30.448;2022-11-15T15:57:03;99769.97;;;8.16;100.00
49567;BME280;35472;50.514;30.448;2022-11-15T15:59:29;99766.25;;;7.85;100.00
49567;BME280;35472;50.514;30.448;2022-11-15T16:01:54;99766.53;;;8.25;100.00
49567;BME280;35472;50.514;30.448;2022-11-15T16:04:19;99759.63;;;8.50;100.00
49567;BME280;35472;50.514;30.448;2022-11-15T16:06:45;99758.31;;;8.73;100.00
49567;BME280;35472;50.514;30.448;2022-11-15T16:09:16;99759.41;;;8.62;100.00
49567;BME280;35472;50.514;30.448;2022-11-15T16:11:44;99750.00;;;9.00;100.00
49567;BME280;35472;50.514;30.448;2022-11-15T16:14:10;99753.84;;;8.41;100.00
49567;BME280;35472;50.514;30.448;2022-11-15T16:16:36;99743.13;;;8.19;100.00
49567;BME280;35472;50.514;30.448;2022-11-15T16:19:03;99741.28;;;8.35;100.00
49567;BME280;35472;50.514;30.448;2022-11-15T16:21:29;99745.91;;;8.34;100.00
49567;BME280;35472;50.514;30.448;2022-11-15T16:23:54;99743.53;;;8.48;100.00
49567;BME280;35472;50.514;30.448;2022-11-15T16:26:29;99734.81;;;8.41;100.00
49567;BME280;35472;50.514;30.448;2022-11-15T16:28:55;99739.63;;;7.87;100.00
49567;BME280;35472;50.514;30.448;2022-11-15T16:31:20;99728.47;;;8.25;100.00
49567;BME280;35472;50.514;30.448;2022-11-15T16:33:49;99724.81;;;8.52;100.00
49567;BME280;35472;50.514;30.448;2022-11-15T16:36:22;99722.09;;;8.52;100.00
49567;BME280;35472;50.514;30.448;2022-11-15T16:38:48;99724.25;;;8.45;100.00
49567;BME280;35472;50.514;30.448;2022-11-15T16:41:15;99713.63;;;8.48;100.00
49567;BME280;35472;50.514;30.448;2022-11-15T16:43:46;99708.78;;;8.50;100.00
49567;BME280;35472;50.514;30.448;2022-11-15T16:46:19;99716.22;;;8.23;100.00
49567;BME280;35472;50.514;30.448;2022-11-15T16:48:45;99710.34;;;7.94;100.00
49567;BME280;35472;50.514;30.448;2022-11-15T16:51:11;99709.66;;;8.19;100.00
49567;BME280;35472;50.514;30.448;2022-11-15T16:53:37;99706.91;;;8.09;100.00
49567;BME280;35472;50.514;30.448;2022-11-15T16:56:02;99701.97;;;8.05;100.00
49567;BME280;35472;50.514;30.448;2022-11-15T16:58:28;99701.97;;;8.05;100.00
49567;BME280;35472;50.514;30.448;2022-11-15T17:00:55;99703.16;;;8.25;100.00
49567;BME280;35472;50.514;30.448;2022-11-15T17:03:22;99698.16;;;8.44;100.00
49567;BME280;35472;50.514;30.448;2022-11-15T17:05:48;99694.06;;;8.46;100.00
49567;BME280;35472;50.514;30.448;2022-11-15T17:08:14;99695.44;;;8.54;100.00
49567;BME280;35472;50.514;30.448;2022-11-15T17:10:39;99683.94;;;8.31;100.00
49567;BME280;35472;50.514;30.448;2022-11-15T17:13:11;99691.13;;;8.05;100.00
49567;BME280;35472;50.514;30.448;2022-11-15T17:15:37;99688.94;;;8.02;100.00
49567;BME280;35472;50.514;30.448;2022-11-15T17:18:02;99686.97;;;8.40;100.00
49567;BME280;35472;50.514;30.448;2022-11-15T17:20:28;99689.16;;;8.48;100.00
49567;BME280;35472;50.514;30.448;2022-11-15T17:22:54;99681.00;;;8.43;100.00
49567;BME280;35472;50.514;30.448;2022-11-15T17:25:20;99670.00;;;8.23;100.00
49567;BME280;35472;50.514;30.448;2022-11-15T17:27:45;99673.38;;;8.40;100.00
49567;BME280;35472;50.514;30.448;2022-11-15T17:30:12;99675.19;;;8.29;100.00
49567;BME280;35472;50.514;30.448;2022-11-15T17:32:40;99671.66;;;8.24;100.00
49567;BME280;35472;50.514;30.448;2022-11-15T17:35:05;99662.06;;;8.69;100.00
49567;BME280;35472;50.514;30.448;2022-11-15T17:37:32;99665.19;;;8.35;100.00
49567;BME280;35472;50.514;30.448;2022-11-15T17:39:57;99657.66;;;8.52;100.00
49567;BME280;35472;50.514;30.448;2022-11-15T17:42:23;99650.81;;;8.40;100.00
49567;BME280;35472;50.514;30.448;2022-11-15T17:44:48;99651.81;;;8.23;100.00